createdAt,value
2023-04-20T00:01:14.070Z,0.50
2023-04-20T00:03:40.676Z,0.87
2023-04-20T00:06:07.239Z,2.40
2023-04-20T00:08:33.744Z,2.60
2023-04-20T00:11:00.206Z,0.70
2023-04-20T00:13:26.990Z,0.40
2023-04-20T00:15:53.473Z,0.90
2023-04-20T00:18:19.954Z,0.50
2023-04-20T00:20:46.480Z,0.80
2023-04-20T00:23:12.975Z,0.70
2023-04-20T00:25:39.494Z,4.00
2023-04-20T00:28:05.996Z,2.40
2023-04-20T00:30:32.529Z,1.10
2023-04-20T00:32:59.041Z,0.80
2023-04-20T00:35:25.580Z,0.60
2023-04-20T00:37:52.042Z,2.03
2023-04-20T00:40:18.692Z,0.53
2023-04-20T00:42:45.173Z,0.90
2023-04-20T00:45:11.657Z,0.63
2023-04-20T00:47:38.646Z,0.60
2023-04-20T00:50:06.881Z,2.47
2023-04-20T00:52:33.933Z,0.47
2023-04-20T00:55:01.394Z,0.90
2023-04-20T00:57:28.102Z,0.60
2023-04-20T00:59:54.605Z,0.70
2023-04-20T01:02:21.156Z,1.10
2023-04-20T01:04:47.751Z,4.30
2023-04-20T01:07:14.308Z,0.63
2023-04-20T01:09:40.877Z,2.33
2023-04-20T01:12:09.502Z,1.30
2023-04-20T01:14:36.010Z,1.27
2023-04-20T01:17:05.236Z,0.70
2023-04-20T01:19:32.706Z,0.80
2023-04-20T01:21:59.218Z,0.50
2023-04-20T01:24:25.747Z,1.13
2023-04-20T01:26:52.229Z,1.10
2023-04-20T01:29:18.901Z,1.07
2023-04-20T01:31:45.837Z,4.67
2023-04-20T01:34:12.380Z,1.27
2023-04-20T01:36:41.580Z,1.30
2023-04-20T01:39:08.456Z,3.50
2023-04-20T01:41:35.125Z,1.43
2023-04-20T01:44:01.674Z,3.80
2023-04-20T01:46:28.228Z,1.63
2023-04-20T01:48:54.720Z,0.77
2023-04-20T01:51:21.532Z,1.33
2023-04-20T01:53:48.028Z,0.93
2023-04-20T01:56:14.749Z,3.40
2023-04-20T01:58:41.235Z,1.20
2023-04-20T02:01:07.797Z,0.87
2023-04-20T02:03:34.488Z,1.43
2023-04-20T02:06:01.232Z,2.57
2023-04-20T02:08:27.704Z,1.20
2023-04-20T02:10:54.205Z,0.97
2023-04-20T02:13:20.743Z,1.57
2023-04-20T02:15:47.262Z,4.53
2023-04-20T02:18:14.859Z,0.73
2023-04-20T02:20:42.521Z,0.87
2023-04-20T02:23:09.003Z,1.30
2023-04-20T02:25:35.578Z,5.63
2023-04-20T02:28:02.109Z,0.63
2023-04-20T02:30:28.626Z,1.13
2023-04-20T02:32:55.281Z,0.80
2023-04-20T02:35:21.821Z,1.10
2023-04-20T02:37:48.353Z,1.13
2023-04-20T02:40:15.321Z,1.00
2023-04-20T02:42:41.790Z,0.57
2023-04-20T02:45:09.820Z,1.10
2023-04-20T02:47:36.328Z,0.60
2023-04-20T02:50:03.733Z,0.70
2023-04-20T02:52:30.220Z,0.70
2023-04-20T02:54:56.714Z,0.67
2023-04-20T02:57:24.663Z,2.20
2023-04-20T02:59:51.194Z,0.90
2023-04-20T03:02:17.724Z,1.43
2023-04-20T03:04:44.426Z,1.10
2023-04-20T03:07:11.083Z,2.40
2023-04-20T03:09:37.596Z,3.20
2023-04-20T03:12:04.989Z,1.73
2023-04-20T03:14:31.539Z,0.77
2023-04-20T03:16:58.128Z,0.77
2023-04-20T03:19:24.631Z,2.63
2023-04-20T03:21:51.165Z,0.87
2023-04-20T03:24:18.407Z,0.80
2023-04-20T03:26:44.890Z,0.70
2023-04-20T03:29:11.368Z,0.70
2023-04-20T03:31:37.938Z,1.77
2023-04-20T03:34:04.809Z,0.97
2023-04-20T03:36:31.831Z,0.93
2023-04-20T03:38:58.324Z,1.10
2023-04-20T03:41:24.834Z,0.70
2023-04-20T03:43:51.333Z,4.17
2023-04-20T03:46:17.953Z,0.70
2023-04-20T03:48:44.551Z,1.40
2023-04-20T03:51:11.067Z,0.73
2023-04-20T03:53:39.443Z,1.20
2023-04-20T03:56:06.837Z,1.23
2023-04-20T03:58:33.349Z,6.33
2023-04-20T04:01:07.116Z,1.23
2023-04-20T04:03:35.244Z,0.70
2023-04-20T04:06:03.587Z,1.53
2023-04-20T04:08:31.371Z,0.80
2023-04-20T04:10:57.967Z,0.90
2023-04-20T04:13:24.469Z,1.13
2023-04-20T04:15:51.022Z,1.03
2023-04-20T04:18:17.555Z,1.10
2023-04-20T04:20:44.061Z,1.50
2023-04-20T04:23:10.942Z,3.67
2023-04-20T04:25:39.583Z,1.60
2023-04-20T04:28:06.539Z,3.13
2023-04-20T04:30:33.272Z,5.43
2023-04-20T04:32:59.855Z,4.47
2023-04-20T04:35:26.526Z,6.93
2023-04-20T04:37:53.580Z,6.00
2023-04-20T04:40:20.057Z,4.03
2023-04-20T04:42:47.889Z,4.83
2023-04-20T04:45:14.420Z,5.43
2023-04-20T04:47:42.564Z,6.00
2023-04-20T04:50:10.096Z,9.23
2023-04-20T04:52:37.013Z,10.13
2023-04-20T04:55:07.502Z,6.03
2023-04-20T04:57:34.299Z,5.43
2023-04-20T05:00:00.973Z,4.73
2023-04-20T05:02:27.832Z,4.90
2023-04-20T05:04:55.551Z,4.73
2023-04-20T05:07:22.318Z,5.50
2023-04-20T05:09:48.922Z,5.07
2023-04-20T05:12:15.419Z,6.83
2023-04-20T05:14:41.942Z,5.70
2023-04-20T05:17:08.448Z,5.60
2023-04-20T05:19:34.981Z,7.77
2023-04-20T05:22:01.502Z,4.90
2023-04-20T05:24:28.345Z,5.40
2023-04-20T05:26:54.823Z,4.93
2023-04-20T05:29:21.411Z,9.17
2023-04-20T05:31:47.959Z,5.97
2023-04-20T05:34:14.454Z,3.87
2023-04-20T05:36:40.962Z,3.87
2023-04-20T05:39:07.656Z,5.93
2023-04-20T05:41:34.252Z,4.33
2023-04-20T05:44:00.774Z,7.13
2023-04-20T05:46:28.522Z,3.10
2023-04-20T05:48:55.335Z,4.93
2023-04-20T05:51:21.872Z,5.53
2023-04-20T05:53:48.366Z,4.07
2023-04-20T05:56:14.932Z,4.83
2023-04-20T05:58:41.476Z,5.40
2023-04-20T06:01:08.003Z,6.37
2023-04-20T06:03:34.794Z,10.43
2023-04-20T06:06:01.477Z,11.03
2023-04-20T06:08:28.023Z,12.17
2023-04-20T06:10:56.369Z,8.47
2023-04-20T06:13:23.387Z,6.43
2023-04-20T06:15:52.091Z,5.30
2023-04-20T06:18:18.955Z,3.23
2023-04-20T06:20:45.971Z,4.90
2023-04-20T06:23:12.550Z,2.73
2023-04-20T06:25:39.092Z,3.10
2023-04-20T06:28:06.561Z,5.20
2023-04-20T06:30:33.867Z,5.87
2023-04-20T06:33:01.726Z,7.47
2023-04-20T06:35:28.541Z,4.67
2023-04-20T06:37:56.646Z,4.83
2023-04-20T06:40:26.639Z,6.50
2023-04-20T06:42:53.133Z,10.33
2023-04-20T06:45:19.724Z,4.67
2023-04-20T06:47:46.270Z,8.73
2023-04-20T06:50:12.805Z,8.10
2023-04-20T06:52:40.503Z,3.60
2023-04-20T06:55:08.300Z,9.47
2023-04-20T06:57:34.806Z,8.60
2023-04-20T07:00:01.335Z,7.40
2023-04-20T07:02:28.043Z,12.47
2023-04-20T07:05:01.541Z,8.33
2023-04-20T07:07:28.073Z,7.63
2023-04-20T07:09:54.569Z,7.90
2023-04-20T07:12:21.132Z,5.60
2023-04-20T07:14:47.598Z,5.43
2023-04-20T07:17:14.083Z,7.37
2023-04-20T07:19:40.584Z,4.43
2023-04-20T07:22:07.077Z,3.43
2023-04-20T07:24:33.556Z,5.97
2023-04-20T07:27:00.726Z,5.73
2023-04-20T07:29:27.263Z,8.03
2023-04-20T07:31:53.788Z,7.73
2023-04-20T07:34:20.510Z,5.20
2023-04-20T07:36:47.163Z,4.60
2023-04-20T07:39:14.982Z,5.80
2023-04-20T07:41:41.526Z,7.43
2023-04-20T07:44:07.996Z,4.40
2023-04-20T07:46:34.556Z,7.17
2023-04-20T07:49:01.051Z,6.63
2023-04-20T07:51:29.552Z,7.07
2023-04-20T07:53:56.501Z,8.53
2023-04-20T07:56:23.039Z,5.57
2023-04-20T07:58:49.570Z,6.80
2023-04-20T08:01:16.089Z,3.47
2023-04-20T08:03:42.737Z,4.70
2023-04-20T08:06:09.692Z,6.43
2023-04-20T08:08:36.535Z,5.43
2023-04-20T08:11:03.156Z,5.23
2023-04-20T08:13:30.064Z,4.87
2023-04-20T08:15:56.580Z,9.20
2023-04-20T08:18:23.132Z,7.00
2023-04-20T08:20:50.689Z,4.80
2023-04-20T08:23:17.719Z,4.13
2023-04-20T08:25:44.206Z,3.83
2023-04-20T08:28:19.193Z,5.67
2023-04-20T08:30:54.943Z,8.57
2023-04-20T08:33:21.625Z,3.37
2023-04-20T08:35:50.952Z,4.63
2023-04-20T08:38:20.790Z,3.87
2023-04-20T08:40:50.457Z,2.97
2023-04-20T08:43:16.951Z,5.73
2023-04-20T08:45:51.015Z,4.60
2023-04-20T08:48:20.549Z,3.47
2023-04-20T08:50:48.228Z,3.97
2023-04-20T08:53:14.911Z,6.47
2023-04-20T08:55:41.383Z,6.70
2023-04-20T08:58:07.884Z,4.17
2023-04-20T09:00:34.469Z,4.37
2023-04-20T09:03:01.317Z,3.60
2023-04-20T09:05:30.736Z,4.53
2023-04-20T09:08:00.502Z,6.07
2023-04-20T09:10:39.495Z,4.87
2023-04-20T09:13:06.150Z,3.33
2023-04-20T09:15:32.756Z,4.07
2023-04-20T09:17:59.379Z,3.70
2023-04-20T09:20:34.299Z,3.87
2023-04-20T09:23:18.751Z,4.07
2023-04-20T09:25:49.900Z,4.07
2023-04-20T09:28:17.126Z,3.93
2023-04-20T09:30:50.756Z,4.17
2023-04-20T09:33:18.623Z,4.20
2023-04-20T09:35:45.825Z,7.37
2023-04-20T09:38:16.962Z,7.20
2023-04-20T09:40:43.493Z,4.43
2023-04-20T09:43:19.113Z,3.77
2023-04-20T09:45:45.800Z,3.87
2023-04-20T09:48:18.105Z,4.10
2023-04-20T09:50:49.734Z,7.70
2023-04-20T09:53:18.895Z,8.63
2023-04-20T09:55:51.287Z,4.10
2023-04-20T09:58:23.034Z,4.60
2023-04-20T10:00:50.474Z,3.37
2023-04-20T10:03:20.973Z,3.93
2023-04-20T10:05:47.776Z,3.40
2023-04-20T10:08:14.307Z,3.57
2023-04-20T10:10:50.625Z,7.37
2023-04-20T10:13:19.901Z,7.30
2023-04-20T10:15:46.603Z,5.03
2023-04-20T10:18:24.288Z,5.30
2023-04-20T10:21:03.497Z,4.77
2023-04-20T10:23:29.987Z,3.57
2023-04-20T10:25:59.808Z,3.13
2023-04-20T10:28:44.112Z,4.13
2023-04-20T10:31:13.166Z,7.07
2023-04-20T10:33:55.713Z,7.80
2023-04-20T10:36:28.918Z,3.72
2023-04-20T10:38:55.907Z,4.03
2023-04-20T10:41:22.840Z,5.37
2023-04-20T10:43:49.452Z,5.35
2023-04-20T10:46:22.189Z,4.28
2023-04-20T10:49:01.611Z,4.05
2023-04-20T10:51:28.411Z,5.07
2023-04-20T10:54:08.478Z,15.50
2023-04-20T10:57:15.538Z,5.97
2023-04-20T10:59:42.017Z,4.40
2023-04-20T11:02:10.212Z,7.47
2023-04-20T11:04:36.820Z,22.90
2023-04-20T11:07:09.121Z,4.37
2023-04-20T11:09:37.658Z,12.23
2023-04-20T11:12:11.258Z,3.50
2023-04-20T11:14:51.178Z,6.37
2023-04-20T11:17:18.008Z,5.80
2023-04-20T11:19:45.945Z,3.10
2023-04-20T11:22:24.819Z,3.87
2023-04-20T11:24:51.513Z,5.45
2023-04-20T11:27:21.486Z,3.65
2023-04-20T11:29:57.548Z,3.77
2023-04-20T11:32:25.004Z,4.37
2023-04-20T11:35:06.726Z,8.00
2023-04-20T11:37:47.214Z,4.32
2023-04-20T11:40:14.287Z,4.95
2023-04-20T11:42:40.753Z,4.23
2023-04-20T11:45:08.025Z,6.65
2023-04-20T11:47:34.563Z,4.43
2023-04-20T11:50:01.104Z,4.20
2023-04-20T11:52:27.613Z,6.07
2023-04-20T11:54:54.130Z,3.85
2023-04-20T11:57:23.024Z,4.57
2023-04-20T11:59:49.643Z,4.78
2023-04-20T12:02:16.212Z,4.90
2023-04-20T12:04:42.962Z,7.25
2023-04-20T12:07:10.004Z,3.90
2023-04-20T12:09:37.536Z,5.32
2023-04-20T12:12:05.301Z,4.30
2023-04-20T12:14:35.536Z,3.95
2023-04-20T12:17:04.071Z,5.47
2023-04-20T12:19:31.623Z,3.15
2023-04-20T12:21:58.221Z,3.33
2023-04-20T12:24:24.714Z,4.97
2023-04-20T12:26:51.219Z,3.40
2023-04-20T12:29:17.973Z,4.72
2023-04-20T12:31:44.648Z,4.57
2023-04-20T12:34:11.382Z,5.28
2023-04-20T12:36:40.385Z,6.70
2023-04-20T12:39:06.855Z,4.40
2023-04-20T12:41:33.971Z,3.87
2023-04-20T12:44:02.657Z,4.87
2023-04-20T12:46:31.043Z,3.20
2023-04-20T12:48:57.532Z,4.10
2023-04-20T12:51:24.005Z,4.87
2023-04-20T12:53:50.518Z,4.10
2023-04-20T12:56:17.022Z,3.93
2023-04-20T12:58:44.071Z,3.90
2023-04-20T13:01:10.603Z,5.90
2023-04-20T13:03:37.323Z,5.00
2023-04-20T13:06:05.267Z,9.00
2023-04-20T13:08:31.787Z,3.65
2023-04-20T13:10:58.284Z,4.62
2023-04-20T13:13:24.924Z,4.72
2023-04-20T13:15:53.957Z,4.07
2023-04-20T13:18:21.185Z,3.80
2023-04-20T13:20:47.686Z,4.72
2023-04-20T13:23:15.440Z,4.95
2023-04-20T13:25:42.088Z,5.43
2023-04-20T13:28:08.583Z,4.07
2023-04-20T13:30:35.134Z,5.17
2023-04-20T13:33:01.643Z,4.32
2023-04-20T13:35:28.321Z,4.12
2023-04-20T13:37:54.809Z,10.25
2023-04-20T13:40:21.682Z,3.62
2023-04-20T13:42:48.181Z,7.25
2023-04-20T13:45:14.816Z,4.03
2023-04-20T13:47:41.364Z,4.93
2023-04-20T13:50:09.293Z,4.10
2023-04-20T13:52:36.597Z,7.47
2023-04-20T13:55:04.401Z,7.95
2023-04-20T13:57:30.899Z,6.62
2023-04-20T13:59:58.331Z,3.15
2023-04-20T14:02:25.086Z,3.85
2023-04-20T14:04:51.775Z,3.78
2023-04-20T14:07:18.277Z,7.43
2023-04-20T14:09:45.409Z,4.45
2023-04-20T14:12:13.662Z,4.10
2023-04-20T14:14:40.577Z,5.03
2023-04-20T14:17:07.093Z,3.67
2023-04-20T14:19:33.603Z,3.60
2023-04-20T14:22:00.099Z,4.87
2023-04-20T14:24:26.742Z,4.50
2023-04-20T14:26:53.533Z,4.20
2023-04-20T14:29:20.375Z,4.60
2023-04-20T14:31:46.918Z,5.45
2023-04-20T14:34:13.602Z,5.90
2023-04-20T14:36:40.119Z,3.95
2023-04-20T14:39:06.611Z,5.28
2023-04-20T14:41:33.986Z,4.45
2023-04-20T14:44:00.522Z,6.53
2023-04-20T14:46:27.228Z,4.28
2023-04-20T14:48:53.778Z,10.32
2023-04-20T14:51:20.301Z,5.75
2023-04-20T14:53:46.916Z,8.15
2023-04-20T14:56:13.388Z,3.58
2023-04-20T14:58:41.587Z,4.23
2023-04-20T15:01:08.246Z,3.33
2023-04-20T15:03:34.808Z,4.40
2023-04-20T15:06:02.529Z,4.43
2023-04-20T15:08:29.657Z,6.03
2023-04-20T15:10:56.153Z,4.90
2023-04-20T15:13:23.849Z,4.20
2023-04-20T15:15:52.624Z,12.98
2023-04-20T15:18:20.829Z,4.07
2023-04-20T15:20:47.578Z,5.68
2023-04-20T15:23:14.361Z,4.65
2023-04-20T15:25:40.881Z,6.20
2023-04-20T15:28:07.367Z,5.43
2023-04-20T15:30:34.119Z,5.05
2023-04-20T15:33:04.956Z,4.30
2023-04-20T15:35:32.850Z,5.07
2023-04-20T15:37:59.463Z,6.47
2023-04-20T15:40:26.608Z,10.40
2023-04-20T15:42:54.929Z,4.00
2023-04-20T15:45:22.182Z,4.78
2023-04-20T15:47:48.761Z,4.32
2023-04-20T15:50:16.555Z,7.72
2023-04-20T15:52:43.299Z,7.00
2023-04-20T15:55:12.976Z,9.15
2023-04-20T15:57:39.490Z,5.27
2023-04-20T16:00:10.449Z,5.67
2023-04-20T16:02:40.424Z,7.47
2023-04-20T16:05:08.295Z,4.45
2023-04-20T16:07:34.774Z,5.62
2023-04-20T16:10:02.204Z,5.47
2023-04-20T16:12:28.821Z,5.40
2023-04-20T16:14:56.380Z,6.03
2023-04-20T16:17:22.936Z,5.30
2023-04-20T16:19:49.658Z,5.15
2023-04-20T16:22:16.133Z,4.60
2023-04-20T16:24:42.645Z,7.05
2023-04-20T16:27:09.116Z,7.73
2023-04-20T16:29:35.571Z,4.80
2023-04-20T16:32:02.114Z,5.03
2023-04-20T16:34:30.181Z,5.27
2023-04-20T16:36:56.664Z,6.45
2023-04-20T16:39:23.459Z,6.35
2023-04-20T16:41:50.845Z,7.65
2023-04-20T16:44:17.612Z,4.50
2023-04-20T16:46:44.336Z,5.57
2023-04-20T16:49:10.835Z,7.22
2023-04-20T16:51:37.333Z,5.60
2023-04-20T16:54:04.014Z,4.83
2023-04-20T16:56:30.513Z,4.53
2023-04-20T16:58:57.520Z,7.50
2023-04-20T17:01:25.134Z,4.83
2023-04-20T17:03:51.836Z,6.40
2023-04-20T17:06:18.462Z,6.00
2023-04-20T17:08:44.953Z,7.77
2023-04-20T17:11:11.718Z,4.60
2023-04-20T17:13:38.224Z,5.33
2023-04-20T17:16:05.052Z,5.47
2023-04-20T17:18:33.458Z,6.37
2023-04-20T17:21:01.173Z,8.40
2023-04-20T17:23:27.770Z,6.33
2023-04-20T17:25:54.312Z,8.43
2023-04-20T17:28:20.804Z,14.23
2023-04-20T17:30:47.317Z,10.30
2023-04-20T17:33:13.789Z,5.13
2023-04-20T17:35:40.610Z,8.83
2023-04-20T17:38:07.072Z,6.13
2023-04-20T17:40:33.890Z,9.23
2023-04-20T17:43:01.261Z,6.50
2023-04-20T17:45:27.776Z,5.17
2023-04-20T17:47:54.299Z,6.03
2023-04-20T17:50:21.888Z,8.03
2023-04-20T17:52:48.609Z,10.73
2023-04-20T17:55:15.113Z,5.33
2023-04-20T17:57:41.582Z,3.83
2023-04-20T18:00:10.852Z,10.70
2023-04-20T18:02:37.680Z,9.03
2023-04-20T18:05:05.740Z,21.20
2023-04-20T18:07:32.273Z,16.57
2023-04-20T18:09:58.807Z,11.80
2023-04-20T18:12:25.321Z,6.03
2023-04-20T18:14:51.831Z,9.90
2023-04-20T18:17:18.326Z,10.17
2023-04-20T18:19:44.839Z,7.67
2023-04-20T18:22:11.363Z,11.40
2023-04-20T18:24:37.894Z,8.33
2023-04-20T18:27:04.693Z,8.77
2023-04-20T18:29:31.201Z,12.70
2023-04-20T18:32:00.313Z,7.73
2023-04-20T18:34:30.182Z,6.60
2023-04-20T18:36:57.053Z,8.97
2023-04-20T18:39:24.534Z,12.23
2023-04-20T18:41:51.078Z,8.23
2023-04-20T18:44:18.048Z,8.63
2023-04-20T18:46:44.893Z,8.97
2023-04-20T18:49:11.405Z,8.40
2023-04-20T18:51:37.945Z,8.77
2023-04-20T18:54:04.705Z,7.50
2023-04-20T18:56:31.388Z,10.83
2023-04-20T18:58:58.716Z,11.93
2023-04-20T19:01:25.381Z,15.50
2023-04-20T19:03:52.049Z,11.90
2023-04-20T19:06:18.570Z,11.00
2023-04-20T19:08:45.092Z,10.23
2023-04-20T19:11:11.615Z,16.60
2023-04-20T19:13:43.452Z,9.23
2023-04-20T19:16:11.603Z,9.57
2023-04-20T19:18:39.007Z,9.30
2023-04-20T19:21:05.579Z,12.50
2023-04-20T19:23:32.137Z,9.27
2023-04-20T19:26:00.860Z,9.13
2023-04-20T19:28:27.364Z,11.97
2023-04-20T19:30:54.029Z,9.10
2023-04-20T19:33:20.882Z,12.17
2023-04-20T19:35:50.079Z,10.37
2023-04-20T19:38:21.191Z,13.33
2023-04-20T19:40:48.376Z,13.23
2023-04-20T19:43:16.162Z,9.03
2023-04-20T19:45:42.879Z,13.03
2023-04-20T19:48:09.503Z,9.03
2023-04-20T19:50:36.123Z,19.53
2023-04-20T19:53:02.617Z,8.87
2023-04-20T19:55:29.156Z,8.40
2023-04-20T19:57:55.698Z,8.13
2023-04-20T20:00:22.224Z,10.50
2023-04-20T20:02:48.785Z,10.20
2023-04-20T20:05:15.469Z,14.30
2023-04-20T20:07:42.053Z,10.77
2023-04-20T20:10:08.622Z,7.17
2023-04-20T20:12:35.371Z,11.00
2023-04-20T20:15:03.301Z,10.13
2023-04-20T20:17:29.849Z,9.23
2023-04-20T20:19:56.360Z,9.77
2023-04-20T20:22:22.861Z,7.47
2023-04-20T20:24:51.322Z,9.93
2023-04-20T20:27:18.223Z,10.20
2023-04-20T20:29:44.743Z,9.10
2023-04-20T20:32:11.255Z,12.23
2023-04-20T20:34:37.739Z,8.37
2023-04-20T20:37:04.308Z,7.73
2023-04-20T20:39:31.684Z,9.40
2023-04-20T20:41:58.880Z,8.93
2023-04-20T20:44:27.159Z,12.37
2023-04-20T20:46:53.731Z,11.13
2023-04-20T20:49:20.435Z,7.67
2023-04-20T20:51:47.093Z,9.60
2023-04-20T20:54:14.428Z,5.90
2023-04-20T20:56:42.813Z,7.43
2023-04-20T20:59:09.529Z,6.67
2023-04-20T21:01:36.029Z,5.53
2023-04-20T21:04:03.900Z,11.73
2023-04-20T21:06:31.941Z,10.43
2023-04-20T21:08:58.433Z,9.03
2023-04-20T21:11:24.921Z,8.83
2023-04-20T21:13:51.398Z,7.73
2023-04-20T21:16:17.938Z,9.27
2023-04-20T21:18:44.423Z,5.97
2023-04-20T21:21:12.228Z,8.03
2023-04-20T21:23:38.740Z,6.50
2023-04-20T21:26:05.213Z,7.13
2023-04-20T21:28:32.066Z,11.07
2023-04-20T21:30:58.593Z,6.50
2023-04-20T21:33:25.128Z,7.00
2023-04-20T21:35:51.641Z,8.77
2023-04-20T21:38:18.126Z,7.87
2023-04-20T21:40:44.612Z,10.47
2023-04-20T21:43:11.090Z,7.87
2023-04-20T21:45:37.610Z,8.57
2023-04-20T21:48:04.385Z,8.50
2023-04-20T21:50:30.893Z,5.60
2023-04-20T21:52:57.377Z,10.00
2023-04-20T21:55:23.849Z,11.27
2023-04-20T21:57:50.328Z,7.60
2023-04-20T22:00:17.408Z,12.60
2023-04-20T22:02:44.158Z,7.33
2023-04-20T22:05:10.964Z,10.70
2023-04-20T22:07:40.828Z,13.77
2023-04-20T22:10:08.859Z,10.27
2023-04-20T22:12:40.088Z,10.27
2023-04-20T22:15:12.918Z,12.83
2023-04-20T22:17:40.474Z,8.50
2023-04-20T22:20:10.461Z,8.83
2023-04-20T22:22:39.671Z,12.30
2023-04-20T22:25:07.939Z,10.20
2023-04-20T22:27:36.248Z,9.20
2023-04-20T22:30:04.999Z,10.53
2023-04-20T22:32:31.704Z,10.57
2023-04-20T22:34:58.257Z,16.67
2023-04-20T22:37:25.108Z,10.67
2023-04-20T22:39:51.578Z,8.93
2023-04-20T22:42:18.097Z,8.33
2023-04-20T22:44:45.043Z,7.50
2023-04-20T22:47:11.626Z,7.53
2023-04-20T22:49:38.200Z,13.77
2023-04-20T22:52:05.372Z,6.97
2023-04-20T22:54:31.896Z,7.97
2023-04-20T22:56:58.448Z,13.03
2023-04-20T22:59:25.095Z,8.63
2023-04-20T23:01:51.612Z,10.40
2023-04-20T23:04:18.301Z,6.67
2023-04-20T23:06:44.836Z,5.47
2023-04-20T23:09:12.627Z,20.83
2023-04-20T23:11:39.772Z,7.53
2023-04-20T23:14:07.934Z,7.60
2023-04-20T23:16:35.323Z,10.53
2023-04-20T23:19:01.876Z,8.73
2023-04-20T23:21:28.582Z,5.83
2023-04-20T23:23:56.871Z,12.67
2023-04-20T23:26:24.408Z,4.93
2023-04-20T23:28:54.395Z,9.07
2023-04-20T23:31:21.156Z,6.90
2023-04-20T23:33:48.063Z,9.23
2023-04-20T23:36:14.716Z,9.10
2023-04-20T23:38:41.575Z,6.07
2023-04-20T23:41:13.064Z,8.83
2023-04-20T23:43:40.774Z,6.97
2023-04-20T23:46:07.847Z,6.33
2023-04-20T23:48:34.851Z,5.83
2023-04-20T23:51:01.917Z,9.67
2023-04-20T23:53:28.582Z,7.97
2023-04-20T23:55:55.288Z,7.13
2023-04-20T23:58:26.422Z,9.13
